Mitcheldean, United Kingdom
Current Conditions -  °F | °C
As of 3:50 PM on Saturday 20 Dec 2014 (Local Time) from EGBJ Reporting Station
Few Clouds Few Clouds  
Wind Chill: 42°   Ceiling: Unl
Heat Index: 46°   Visibility: 6mi
Dew Point: 39°   Wind: 9mph
Humidity: 76%   Direction: 270°W
Pressure: 30.36"   Gusts: NA
Location:  51.86°N, 2.49°W
Report Text: EGBJ 201550Z 27008KT 9999 FEW022 08/04 Q1028
Loading
Personal Weather Stations






























Interactive Weather Map New forecast layout! Learn more

10-Day Weather Forecast

Advertisements
Track Severe Weather on mobile